Time;durP1;ratioP1;P1;durP2;ratioP2;P2;SDS_P1;SDS_P2;PMS_P1;PMS_P2;Temp;Humidity;BMP_temperature;BMP_pressure;BME280_temperature;BME280_humidity;BME280_pressure;Samples;Min_cycle;Max_cycle;Signal;HPM_P1;HPM_P2
2022/02/01 00:01:34;;;;;;;12.43;7.68;;;;;;;-2.88;73.00;99602.22;4943215;28;20554;-81
2022/02/01 00:04:04;;;;;;;10.90;7.15;;;;;;;-2.77;73.12;99602.84;4926136;29;20054;-81
2022/02/01 00:06:50;;;;;;;11.95;8.18;;;;;;;-2.73;72.85;99598.41;4954915;28;20043;-80
2022/02/01 00:33:25;;;;;;;11.57;7.22;;;;;;;-2.76;72.81;99620.25;4926773;29;20406;-80
2022/02/01 00:36:06;;;;;;;13.48;7.65;;;;;;;-2.75;72.96;99621.09;4941994;29;20051;-80
2022/02/01 00:38:41;;;;;;;13.25;7.05;;;;;;;-2.66;73.29;99625.28;4910382;29;20105;-80
2022/02/01 00:41:09;;;;;;;18.30;7.70;;;;;;;-2.55;72.91;99623.31;4953537;29;20079;-81
2022/02/01 00:43:36;;;;;;;15.60;8.48;;;;;;;-2.56;72.72;99622.41;4937789;29;20066;-80
2022/02/01 00:46:03;;;;;;;13.52;7.88;;;;;;;-2.50;72.71;99626.66;4923109;29;20039;-78
2022/02/01 00:48:29;;;;;;;15.23;7.93;;;;;;;-2.50;72.42;99627.53;4954411;29;20039;-81
2022/02/01 00:50:55;;;;;;;16.42;8.95;;;;;;;-2.53;72.48;99626.72;4955079;28;20062;-80
2022/02/01 00:53:27;;;;;;;16.35;8.30;;;;;;;-2.61;72.72;99612.97;4921894;29;20050;-80
2022/02/01 00:55:56;;;;;;;11.05;6.32;;;;;;;-2.52;72.59;99617.97;4938310;29;20047;-80
2022/02/01 00:58:23;;;;;;;;;;;;;;;-2.47;72.40;99619.59;4938097;29;20054;-80
2022/02/01 01:00:49;;;;;;;12.43;7.50;;;;;;;-2.44;72.51;99621.31;4937387;29;19925;-80
2022/02/01 01:03:15;;;;;;;11.25;7.43;;;;;;;-2.42;72.51;99624.72;4953531;28;20047;-80
2022/02/01 01:05:41;;;;;;;13.88;7.97;;;;;;;-2.47;72.29;99608.28;4937420;29;20487;-80
2022/02/01 01:08:07;;;;;;;13.35;7.60;;;;;;;-2.28;72.28;99621.81;4953320;29;20055;-80
2022/02/01 01:10:34;;;;;;;11.18;6.78;;;;;;;-2.26;72.03;99620.00;4953235;29;20133;-81
2022/02/01 01:13:18;;;;;;;12.63;7.93;;;;;;;-2.24;71.62;99618.22;4921535;29;20051;-80
2022/02/01 01:16:11;;;;;;;11.70;7.88;;;;;;;-2.19;71.78;99616.34;4939858;28;20051;-81
2022/02/01 01:53:55;;;;;;;11.02;7.00;;;;;;;-2.31;70.80;99612.25;4958729;29;20051;-81
2022/02/01 01:56:21;;;;;;;9.38;6.50;;;;;;;-2.31;70.49;99607.03;4957638;29;20039;-80
2022/02/01 01:58:47;;;;;;;10.13;6.88;;;;;;;-2.23;70.24;99602.47;4957431;28;20137;-81
2022/02/01 02:01:14;;;;;;;10.02;6.47;;;;;;;-2.28;70.34;99601.72;4940143;29;20503;-82
2022/02/01 02:03:42;;;;;;;11.60;6.65;;;;;;;-2.28;70.02;99596.47;4951883;29;20411;-82
2022/02/01 02:06:08;;;;;;;9.93;6.35;;;;;;;-2.27;70.40;99597.34;4937414;29;20035;-82
2022/02/01 02:08:34;;;;;;;8.65;5.88;;;;;;;-2.30;70.04;99587.78;4936605;29;20039;-81
2022/02/01 02:11:06;;;;;;;9.65;6.57;;;;;;;-2.31;69.77;99593.94;4952438;29;20130;-80
2022/02/01 02:16:31;;;;;;;8.45;5.90;;;;;;;-2.54;70.22;99610.16;4957092;29;20501;-82
2022/02/01 02:18:58;;;;;;;9.02;6.50;;;;;;;-2.64;70.34;99603.41;4956668;29;20039;-81
2022/02/01 02:21:24;;;;;;;10.57;6.20;;;;;;;-2.77;70.55;99596.75;4957104;28;20093;-81
2022/02/01 02:23:50;;;;;;;10.77;6.68;;;;;;;-2.76;70.90;99594.09;4957115;28;20149;-82
2022/02/01 02:26:16;;;;;;;10.10;6.75;;;;;;;-2.85;70.68;99588.22;4955540;28;20471;-79
2022/02/01 02:28:44;;;;;;;11.15;7.38;;;;;;;-2.71;70.68;99613.19;4938692;29;20051;-80
2022/02/01 02:31:10;;;;;;;10.63;6.43;;;;;;;-2.63;70.59;99619.97;4955455;28;20043;-80
2022/02/01 02:33:36;;;;;;;8.00;5.97;;;;;;;-2.62;70.60;99619.09;4955801;28;20497;-81
2022/02/01 02:36:09;;;;;;;9.80;5.63;;;;;;;-2.61;70.52;99618.19;4908437;29;20047;-79
2022/02/01 02:38:40;;;;;;;8.18;5.50;;;;;;;-2.77;70.16;99613.31;4955172;29;20082;-80
2022/02/01 02:41:29;;;;;;;8.50;5.80;;;;;;;-2.85;70.80;99602.16;4940329;29;20050;-80
2022/02/01 02:46:41;;;;;;;9.23;5.40;;;;;;;-3.03;70.67;99589.44;4942077;29;20302;-79
2022/02/01 02:49:08;;;;;;;8.70;5.70;;;;;;;-3.09;71.02;99597.41;4923254;29;20039;-81
2022/02/01 02:51:35;;;;;;;8.38;5.20;;;;;;;-3.09;71.22;99594.81;4955059;29;20051;-81
2022/02/01 02:54:18;;;;;;;7.78;5.55;;;;;;;-3.06;71.04;99594.75;4954976;29;20142;-80
2022/02/01 02:56:45;;;;;;;7.47;5.25;;;;;;;-3.11;71.39;99597.47;4941481;29;20043;-80
2022/02/01 02:59:13;;;;;;;8.82;4.70;;;;;;;-3.07;71.17;99593.03;4939031;29;20047;-81
2022/02/01 03:01:48;;;;;;;10.10;5.80;;;;;;;-3.05;71.28;99588.59;4939178;29;20047;-79
2022/02/01 03:04:15;;;;;;;8.57;5.35;;;;;;;-3.09;70.84;99594.81;4939604;29;20066;-81
2022/02/01 03:06:42;;;;;;;8.85;5.70;;;;;;;-3.12;70.73;99597.47;4938943;29;20094;-82
2022/02/01 03:09:09;;;;;;;8.30;5.40;;;;;;;-3.14;70.74;99591.44;4959275;29;20471;-83
2022/02/01 03:11:36;;;;;;;9.07;6.15;;;;;;;-3.10;70.84;99590.47;4946594;29;20074;-82
2022/02/01 03:14:06;;;;;;;8.65;5.82;;;;;;;-3.01;71.21;99587.66;4915290;29;20043;-81
2022/02/01 03:21:46;;;;;;;11.93;8.15;;;;;;;-2.80;70.56;99595.06;4961372;29;20123;-80
2022/02/01 03:24:12;;;;;;;16.52;8.57;;;;;;;-2.80;69.97;99592.44;4935953;29;20150;-82
2022/02/01 03:26:37;;;;;;;14.40;8.50;;;;;;;-2.71;70.09;99601.81;4975159;28;20078;-81
2022/02/01 03:29:04;;;;;;;11.73;7.35;;;;;;;-2.72;69.77;99602.72;4977833;28;20538;-80
2022/02/01 03:31:30;;;;;;;12.95;7.43;;;;;;;-2.74;69.61;99607.16;4973597;28;20046;-78
2022/02/01 03:33:56;;;;;;;11.00;7.63;;;;;;;-2.73;69.92;99604.50;4974073;28;20038;-81
2022/02/01 03:36:22;;;;;;;12.23;7.25;;;;;;;-2.74;69.31;99608.00;4957610;28;20053;-81
2022/02/01 03:38:48;;;;;;;8.75;6.28;;;;;;;-2.71;69.20;99615.78;4941720;28;20047;-82
2022/02/01 03:41:14;;;;;;;11.60;6.38;;;;;;;-2.77;69.65;99623.75;4972061;28;20158;-82
2022/02/01 03:43:40;;;;;;;9.85;6.55;;;;;;;-2.74;69.40;99613.25;4974711;28;20057;-81
2022/02/01 03:46:07;;;;;;;9.40;6.32;;;;;;;-2.86;69.52;99621.31;4973149;28;20451;-79
2022/02/01 03:48:33;;;;;;;17.00;6.32;;;;;;;-2.83;69.51;99618.66;4957577;28;20123;-86
2022/02/01 03:50:59;;;;;;;9.88;6.38;;;;;;;-2.76;69.75;99604.53;4957224;28;20513;-80
2022/02/01 03:53:25;;;;;;;10.43;5.80;;;;;;;-2.71;69.34;99600.09;4951142;28;20042;-84
2022/02/01 03:55:51;;;;;;;8.88;4.68;;;;;;;-2.78;69.30;99593.28;4926078;29;20039;-81
2022/02/01 03:58:17;;;;;;;13.05;6.10;;;;;;;-2.77;68.95;99602.84;4938473;29;20126;-80
2022/02/01 04:00:43;;;;;;;26.40;6.22;;;;;;;-2.67;69.39;99605.25;4922420;29;20477;-82
2022/02/01 04:03:09;;;;;;;10.07;6.90;;;;;;;-2.64;68.91;99603.41;4937974;29;20510;-82
2022/02/01 04:05:35;;;;;;;10.50;5.32;;;;;;;-2.64;69.03;99602.56;4937908;29;20073;-80
2022/02/01 04:08:02;;;;;;;10.90;5.88;;;;;;;-2.60;68.35;99605.06;4937908;29;20090;-79
2022/02/01 04:10:28;;;;;;;10.50;5.43;;;;;;;-2.62;68.62;99611.25;4953881;29;20434;-82
2022/02/01 04:12:54;;;;;;;11.90;5.72;;;;;;;-2.65;68.27;99593.84;4922092;29;20079;-79
2022/02/01 04:15:23;;;;;;;7.78;5.30;;;;;;;-2.67;68.45;99598.28;4955033;29;20051;-80
2022/02/01 04:17:49;;;;;;;8.73;6.18;;;;;;;-2.61;68.53;99592.03;4922258;29;20043;-81
2022/02/01 04:20:15;;;;;;;9.98;5.60;;;;;;;-2.61;68.60;99597.25;4907317;29;20043;-83
2022/02/01 04:22:41;;;;;;;11.50;5.60;;;;;;;-2.56;68.42;99584.91;4953963;29;20118;-82
2022/02/01 04:25:08;;;;;;;14.55;5.75;;;;;;;-2.66;68.55;99572.97;4922037;29;20082;-82
2022/02/01 04:27:34;;;;;;;13.63;6.25;;;;;;;-2.59;68.28;99569.31;4955271;29;20123;-82
2022/02/01 04:30:06;;;;;;;21.27;6.00;;;;;;;-2.53;68.11;99587.47;4936786;29;20043;-77
2022/02/01 04:32:34;;;;;;;12.48;5.75;;;;;;;-2.53;67.82;99577.84;4953563;28;20118;-82
2022/02/01 04:35:01;;;;;;;7.97;5.38;;;;;;;-2.56;67.57;99566.59;4953675;28;20475;-83
2022/02/01 04:37:27;;;;;;;9.45;5.28;;;;;;;-2.57;67.73;99568.34;4969059;28;20055;-82
2022/02/01 04:39:54;;;;;;;10.57;5.57;;;;;;;-2.57;67.81;99572.75;4921663;29;20098;-80
2022/02/01 04:42:20;;;;;;;12.13;5.40;;;;;;;-2.60;67.77;99568.44;4952968;28;20047;-80
2022/02/01 04:44:46;;;;;;;13.20;5.03;;;;;;;-2.65;67.43;99561.59;4905258;29;20058;-81
2022/02/01 04:47:12;;;;;;;9.43;6.00;;;;;;;-2.66;67.66;99562.50;4921443;29;20447;-80
2022/02/01 04:49:38;;;;;;;7.28;5.40;;;;;;;-2.65;67.83;99572.06;4937176;29;20071;-80
2022/02/01 04:52:05;;;;;;;7.00;4.70;;;;;;;-2.78;67.56;99571.50;4906975;29;20390;-79
2022/02/01 04:54:31;;;;;;;9.02;5.60;;;;;;;-2.70;67.83;99556.47;4909339;29;20498;-79
2022/02/01 04:56:57;;;;;;;7.38;5.25;;;;;;;-2.38;68.42;99574.03;4925660;29;20503;-79
2022/02/01 04:59:23;;;;;;;6.97;5.20;;;;;;;-2.16;67.63;99558.66;4908869;29;20047;-80
2022/02/01 05:01:49;;;;;;;7.20;5.38;;;;;;;-1.82;67.24;99563.91;4909730;29;20087;-82
2022/02/01 05:04:19;;;;;;;8.00;5.35;;;;;;;-1.60;66.01;99550.22;4956789;29;20051;-79
2022/02/01 05:06:51;;;;;;;15.32;6.68;;;;;;;-1.39;65.53;99547.03;4958720;29;20461;-78
2022/02/01 05:09:17;;;;;;;15.82;6.60;;;;;;;-1.32;64.26;99547.69;4965994;28;20043;-78
2022/02/01 05:11:43;;;;;;;13.50;6.55;;;;;;;-1.30;64.32;99554.63;4951011;28;20458;-78
2022/02/01 05:14:13;;;;;;;16.77;6.80;;;;;;;-1.19;64.17;99554.31;4960659;28;20050;-81
2022/02/01 05:16:57;;;;;;;11.80;6.68;;;;;;;-0.95;64.99;99549.25;4940525;28;20490;-77
2022/02/01 05:22:01;;;;;;;11.38;6.80;;;;;;;-0.39;62.29;99531.72;4909725;29;20043;-88
2022/02/01 05:24:27;;;;;;;12.77;6.75;;;;;;;-0.46;61.29;99517.06;4925376;29;20059;-82
2022/02/01 05:26:54;;;;;;;19.92;6.72;;;;;;;-0.36;60.76;99518.50;4924820;29;20509;-83
2022/02/01 05:29:22;;;;;;;13.43;6.03;;;;;;;-0.31;60.43;99529.69;4939802;29;20047;-83
2022/02/01 05:31:49;;;;;;;11.27;5.80;;;;;;;-0.39;60.01;99528.25;4940256;29;20051;-81
2022/02/01 05:34:15;;;;;;;10.15;6.00;;;;;;;-0.31;59.85;99539.34;4956044;29;20113;-83
2022/02/01 05:36:41;;;;;;;19.13;6.20;;;;;;;-0.20;59.67;99545.09;4924960;29;20074;-86
2022/02/01 05:39:28;;;;;;;8.65;6.15;;;;;;;-0.27;58.78;99543.59;4956374;28;20051;-84
2022/02/01 05:41:56;;;;;;;20.33;6.38;;;;;;;-0.26;59.33;99533.06;4956246;29;20055;-80
2022/02/01 05:44:22;;;;;;;9.63;6.20;;;;;;;-0.17;58.61;99533.66;4955391;29;20039;-79
2022/02/01 05:46:49;;;;;;;14.85;6.45;;;;;;;0.06;59.04;99533.72;4972114;28;20051;-79
2022/02/01 05:49:18;;;;;;;18.00;6.22;;;;;;;0.28;58.47;99533.00;4924281;29;20050;-80
2022/02/01 05:51:49;;;;;;;12.75;6.43;;;;;;;0.40;58.01;99528.16;4931415;29;20677;-81
2022/02/01 05:54:15;;;;;;;16.95;6.47;;;;;;;0.36;57.66;99521.28;4947277;29;20276;-78
2022/02/01 05:56:42;;;;;;;9.38;4.60;;;;;;;0.36;56.51;99515.16;4943708;29;20051;-82
2022/02/01 05:59:08;;;;;;;8.30;4.82;;;;;;;0.38;56.99;99532.63;4909115;29;20039;-76
2022/02/01 06:01:34;;;;;;;7.88;5.65;;;;;;;0.63;57.14;99543.09;4956700;29;20049;-76
2022/02/01 06:03:59;;;;;;;9.35;5.30;;;;;;;0.61;56.18;99537.06;4954678;28;20138;-82
2022/02/01 06:06:26;;;;;;;7.95;5.13;;;;;;;0.50;56.17;99552.38;4908594;29;20046;-82
2022/02/01 06:08:52;;;;;;;7.10;4.93;;;;;;;0.31;56.24;99543.41;4957090;28;20407;-79
2022/02/01 06:11:18;;;;;;;8.95;5.95;;;;;;;0.19;56.52;99539.44;4924931;29;20463;-82
2022/02/01 06:13:44;;;;;;;8.80;5.70;;;;;;;0.36;56.86;99536.22;4956047;28;20129;-80
2022/02/01 06:16:11;;;;;;;8.27;5.85;;;;;;;0.22;56.97;99524.38;4955429;28;20047;-81
2022/02/01 06:18:37;;;;;;;20.55;6.47;;;;;;;0.03;56.69;99520.69;4908350;29;20047;-78
2022/02/01 06:21:03;;;;;;;16.75;6.22;;;;;;;-0.11;56.70;99526.44;4956458;29;20427;-78
2022/02/01 06:23:29;;;;;;;16.15;5.80;;;;;;;-0.13;56.95;99528.25;4937039;28;20082;-80
2022/02/01 06:25:56;;;;;;;9.38;4.90;;;;;;;-0.29;56.71;99522.63;4922875;29;20098;-81
2022/02/01 06:28:26;;;;;;;8.82;4.28;;;;;;;-0.33;56.86;99531.53;4923252;29;20043;-81
2022/02/01 06:30:52;;;;;;;7.03;4.43;;;;;;;-0.25;56.98;99523.41;4939356;28;20134;-80
2022/02/01 06:33:18;;;;;;;6.20;4.35;;;;;;;-0.22;56.83;99530.34;4954841;28;20094;-78
2022/02/01 06:35:44;;;;;;;8.85;7.43;;;;;;;-0.17;56.99;99516.13;4958206;28;20046;-76
2022/02/01 06:38:10;;;;;;;5.72;3.95;;;;;;;0.07;57.10;99506.53;4941730;28;20051;-81
2022/02/01 06:40:37;;;;;;;12.05;7.40;;;;;;;0.39;57.32;99508.03;4958061;28;20047;-81
2022/02/01 06:43:04;;;;;;;6.30;4.68;;;;;;;0.81;56.46;99501.25;4973912;28;20418;-79
2022/02/01 06:45:30;;;;;;;7.20;4.18;;;;;;;1.30;55.82;99504.63;4957726;28;20050;-79
2022/02/01 06:47:56;;;;;;;4.55;3.72;;;;;;;1.62;53.90;99493.66;4974117;28;20085;-84
2022/02/01 06:50:22;;;;;;;6.85;4.15;;;;;;;1.94;53.60;99499.34;4942185;28;20419;-89
2022/02/01 06:52:56;;;;;;;6.53;4.03;;;;;;;2.17;52.81;99486.03;4958298;28;20046;-83
2022/02/01 06:55:45;;;;;;;5.10;3.88;;;;;;;2.50;53.31;99496.03;4959288;28;20051;-82
2022/02/01 06:58:13;;;;;;;5.93;4.18;;;;;;;2.56;51.99;99501.03;4960090;28;20043;-82
2022/02/01 07:00:40;;;;;;;5.95;4.18;;;;;;;2.47;50.22;99503.22;4943769;28;20054;-90
2022/02/01 07:03:06;;;;;;;5.57;4.07;;;;;;;2.48;50.50;99513.69;4958757;28;20054;-81
2022/02/01 07:05:32;;;;;;;15.68;4.78;;;;;;;2.00;50.15;99512.28;4990215;28;20038;-84
2022/02/01 07:07:58;;;;;;;12.40;5.07;;;;;;;1.86;51.30;99486.50;4974384;28;20047;-90
2022/02/01 07:10:24;;;;;;;5.82;4.53;;;;;;;1.80;51.59;99496.44;4959161;28;20465;-85
2022/02/01 07:12:51;;;;;;;9.52;5.97;;;;;;;1.83;51.26;99483.97;4942704;28;20070;-91
2022/02/01 07:15:17;;;;;;;13.88;6.85;;;;;;;1.82;51.36;99492.81;4942313;28;20133;-86
2022/02/01 07:17:48;;;;;;;15.23;7.00;;;;;;;1.86;51.31;99483.00;4943244;28;20078;-90
2022/02/01 07:20:14;;;;;;;17.88;9.82;;;;;;;1.43;51.28;99469.84;4944646;28;20050;-83
2022/02/01 07:22:42;;;;;;;26.23;10.48;;;;;;;1.38;52.46;99492.84;4987455;28;20050;-89
2022/02/01 07:25:23;;;;;;;22.02;10.95;;;;;;;1.59;52.55;99488.50;4931831;28;20157;-85
2022/02/01 07:27:50;;;;;;;25.25;10.63;;;;;;;1.68;52.29;99493.38;4928947;28;20422;-86
2022/02/01 07:30:19;;;;;;;29.30;12.18;;;;;;;1.88;51.45;99486.41;4957140;28;20043;-84
2022/02/01 07:32:47;;;;;;;21.30;10.13;;;;;;;2.19;51.83;99491.25;4973899;28;20046;-87
2022/02/01 07:35:14;;;;;;;18.50;8.93;;;;;;;2.43;52.19;99491.94;4957593;28;20290;-80
2022/02/01 07:37:40;;;;;;;26.95;9.13;;;;;;;3.14;56.88;99502.78;4957583;28;20074;-83
2022/02/01 07:40:07;;;;;;;14.73;8.57;;;;;;;3.83;54.59;99502.06;4974012;28;20047;-89
2022/02/01 07:42:34;;;;;;;16.33;8.32;;;;;;;4.29;50.96;99497.13;4943067;28;20038;-84
2022/02/01 07:45:01;;;;;;;39.10;9.68;;;;;;;4.41;46.34;99504.41;4942381;28;20046;-92
2022/02/01 07:47:27;;;;;;;10.65;6.18;;;;;;;3.99;45.25;99505.69;4955280;28;20042;-92
2022/02/01 07:49:53;;;;;;;12.73;6.03;;;;;;;2.99;46.51;99507.00;4977831;28;20050;-86
2022/02/01 07:52:19;;;;;;;8.60;5.57;;;;;;;2.76;47.04;99497.50;4984486;28;20626;-87
2022/02/01 07:54:46;;;;;;;8.57;5.38;;;;;;;2.07;48.09;99497.91;4963244;28;20502;-84
2022/02/01 07:57:12;;;;;;;9.68;5.03;;;;;;;1.66;49.45;99482.06;4937015;29;20043;-85
2022/02/01 07:59:38;;;;;;;13.15;5.38;;;;;;;1.14;50.66;99473.63;4934985;29;20031;-85
2022/02/01 08:02:04;;;;;;;13.32;5.03;;;;;;;1.07;51.01;99480.06;4951157;28;20053;-89
2022/02/01 08:04:35;;;;;;;7.82;4.75;;;;;;;1.05;51.42;99473.13;4955101;29;20106;-82
2022/02/01 08:07:01;;;;;;;8.63;5.43;;;;;;;1.04;51.33;99460.88;4923812;29;20050;-83
2022/02/01 08:09:35;;;;;;;10.05;5.57;;;;;;;1.10;51.35;99455.38;4937065;29;20035;-87
2022/02/01 08:12:09;;;;;;;11.25;6.22;;;;;;;1.09;51.11;99458.91;4932347;28;20069;-80
2022/02/01 08:17:34;;;;;;;7.38;5.15;;;;;;;1.37;51.32;99458.69;4922469;29;20077;-88
2022/02/01 08:20:06;;;;;;;10.75;4.82;;;;;;;1.33;50.64;99465.00;4906910;29;20419;-85
2022/02/01 08:22:39;;;;;;;6.68;4.55;;;;;;;1.21;50.25;99461.94;4873587;29;20198;-84
2022/02/01 08:25:06;;;;;;;7.50;4.78;;;;;;;1.00;50.55;99465.41;4903835;29;20466;-85
2022/02/01 08:27:32;;;;;;;9.68;5.50;;;;;;;0.88;50.83;99456.22;4890502;29;20051;-83
2022/02/01 08:29:59;;;;;;;8.60;5.65;;;;;;;0.87;51.31;99466.81;4907373;29;20039;-82
2022/02/01 08:32:28;;;;;;;14.75;6.10;;;;;;;1.00;51.13;99465.41;4906883;29;20055;-87
2022/02/01 08:34:55;;;;;;;11.45;5.40;;;;;;;1.02;51.23;99465.38;4923759;29;20047;-83
2022/02/01 08:37:22;;;;;;;11.70;6.45;;;;;;;0.98;51.22;99464.63;4924167;29;20055;-83
2022/02/01 08:39:50;;;;;;;9.32;5.30;;;;;;;1.24;51.06;99458.31;4907342;29;20154;-82
2022/02/01 08:42:17;;;;;;;15.30;5.72;;;;;;;1.23;51.27;99451.34;4891249;29;20199;-84
2022/02/01 08:44:45;;;;;;;8.63;5.25;;;;;;;1.51;50.77;99443.19;4891866;29;20091;-83
2022/02/01 08:47:15;;;;;;;6.88;5.13;;;;;;;1.77;50.39;99430.66;4872435;29;20047;-83
2022/02/01 08:49:41;;;;;;;8.02;5.13;;;;;;;1.87;50.13;99422.31;4903559;29;20161;-82
2022/02/01 08:52:11;;;;;;;8.27;4.63;;;;;;;2.01;49.21;99419.06;4926925;29;20130;-83
2022/02/01 08:54:40;;;;;;;8.75;4.18;;;;;;;2.12;49.17;99422.09;4952612;29;20051;-82
2022/02/01 08:57:23;;;;;;;6.30;4.50;;;;;;;2.22;49.07;99411.13;4945765;29;20073;-83
2022/02/01 08:59:50;;;;;;;8.82;4.47;;;;;;;2.27;47.32;99406.50;4903423;29;20051;-84
2022/02/01 09:02:17;;;;;;;7.05;4.50;;;;;;;2.42;49.04;99419.88;4888230;29;20196;-84
2022/02/01 09:04:43;;;;;;;10.05;4.07;;;;;;;2.51;48.46;99430.91;4920471;29;20055;-87
2022/02/01 09:07:09;;;;;;;7.82;4.38;;;;;;;2.52;47.85;99424.69;4916540;29;20075;-86
2022/02/01 09:09:39;;;;;;;6.30;4.28;;;;;;;2.48;47.31;99434.53;4915439;29;20063;-83
2022/02/01 09:12:07;;;;;;;5.40;4.20;;;;;;;2.39;47.07;99430.53;4899800;29;20083;-84
2022/02/01 09:14:33;;;;;;;11.23;4.00;;;;;;;2.52;47.64;99430.88;4884239;29;20048;-82
2022/02/01 09:17:00;;;;;;;7.93;4.65;;;;;;;2.54;47.17;99418.44;4915293;29;20063;-82
2022/02/01 09:19:28;;;;;;;7.65;5.40;;;;;;;2.63;47.58;99420.66;4900589;29;20052;-82
2022/02/01 09:21:54;;;;;;;7.20;4.28;;;;;;;2.54;47.04;99417.59;4900443;29;20131;-83
2022/02/01 09:24:21;;;;;;;6.50;4.47;;;;;;;2.51;47.13;99418.56;4903065;29;20423;-83
2022/02/01 09:26:48;;;;;;;6.50;4.72;;;;;;;2.30;48.28;99409.03;4888229;29;20051;-83
2022/02/01 09:29:14;;;;;;;7.05;4.60;;;;;;;2.09;48.02;99416.09;4881715;29;20056;-82
2022/02/01 09:31:41;;;;;;;9.10;4.80;;;;;;;1.82;48.73;99415.53;4882843;29;20091;-84
2022/02/01 09:34:09;;;;;;;8.25;5.07;;;;;;;1.80;49.80;99409.44;4904639;29;20052;-84
2022/02/01 09:36:36;;;;;;;6.75;4.13;;;;;;;1.63;49.60;99420.72;4903740;29;20071;-81
2022/02/01 09:39:03;;;;;;;9.10;5.20;;;;;;;1.70;50.58;99404.59;4902178;29;20046;-85
2022/02/01 09:41:32;;;;;;;6.43;4.35;;;;;;;1.82;49.86;99394.44;4888069;29;20048;-83
2022/02/01 09:43:58;;;;;;;7.78;4.93;;;;;;;1.87;49.99;99417.03;4897186;29;20043;-83
2022/02/01 09:46:30;;;;;;;8.50;5.30;;;;;;;1.83;50.25;99401.41;4907144;29;20055;-82
2022/02/01 09:48:57;;;;;;;7.57;5.00;;;;;;;1.63;50.81;99403.13;4937752;29;20499;-80
2022/02/01 09:51:23;;;;;;;8.10;4.47;;;;;;;1.39;52.02;99404.16;4921436;29;20047;-79
2022/02/01 09:53:50;;;;;;;9.07;5.22;;;;;;;1.40;52.56;99396.22;4921803;29;20154;-80
2022/02/01 09:56:17;;;;;;;8.90;5.55;;;;;;;1.56;52.47;99391.16;4921105;29;20047;-82
2022/02/01 09:58:55;;;;;;;10.57;6.28;;;;;;;1.54;53.03;99392.97;4922253;29;20086;-82
2022/02/01 10:01:25;;;;;;;8.82;6.07;;;;;;;1.54;53.84;99385.06;4921687;29;20075;-80
2022/02/01 10:04:08;;;;;;;8.48;5.85;;;;;;;1.54;54.11;99378.94;4905626;29;20050;-80
2022/02/01 10:06:36;;;;;;;11.93;6.00;;;;;;;1.36;54.77;99377.97;4904655;29;20084;-78
2022/02/01 10:09:08;;;;;;;10.02;6.72;;;;;;;1.25;56.21;99359.13;4904288;29;20062;-82
2022/02/01 10:11:41;;;;;;;14.73;6.93;;;;;;;1.30;55.96;99351.88;4920093;29;20446;-77
2022/02/01 10:14:36;;;;;;;17.17;10.23;;;;;;;1.21;57.46;99363.66;4889580;29;20106;-84
2022/02/01 10:17:09;;;;;;;14.85;7.80;;;;;;;1.00;58.58;99357.50;4940370;29;20047;-83
2022/02/01 10:19:45;;;;;;;16.35;8.25;;;;;;;0.97;59.42;99368.13;4908268;29;20110;-84
2022/02/01 10:22:12;;;;;;;14.90;8.77;;;;;;;1.02;60.02;99367.97;4939545;29;20054;-83
2022/02/01 10:24:40;;;;;;;17.00;8.63;;;;;;;0.96;60.91;99375.19;4892513;29;20062;-84
2022/02/01 10:27:18;;;;;;;18.42;9.40;;;;;;;1.00;60.83;99362.75;4907894;29;20503;-82
2022/02/01 10:30:08;;;;;;;18.83;9.27;;;;;;;0.95;61.87;99362.09;4908344;29;20047;-79
2022/02/01 10:35:23;;;;;;;16.90;9.30;;;;;;;0.88;62.45;99371.16;4909183;29;20050;-78
2022/02/01 10:37:59;;;;;;;16.50;9.18;;;;;;;0.90;62.61;99370.19;4956350;29;20071;-81
2022/02/01 10:40:51;;;;;;;17.25;9.63;;;;;;;0.94;61.67;99370.88;4939910;29;20043;-79
2022/02/01 10:43:18;;;;;;;18.10;10.43;;;;;;;0.92;63.29;99383.28;4909405;29;20067;-81
2022/02/01 10:45:45;;;;;;;23.42;11.40;;;;;;;1.00;62.52;99378.56;4923208;29;20125;-83
2022/02/01 10:48:13;;;;;;;22.08;9.93;;;;;;;0.98;62.20;99380.41;4954680;29;20046;-81
2022/02/01 10:50:38;;;;;;;22.20;9.68;;;;;;;1.05;61.71;99389.75;4938094;29;20043;-82
2022/02/01 10:53:19;;;;;;;27.55;10.77;;;;;;;0.90;61.53;99380.72;4938844;29;20520;-84
2022/02/01 10:55:46;;;;;;;20.10;10.13;;;;;;;0.97;62.07;99389.19;4924651;29;20499;-82
2022/02/01 10:58:14;;;;;;;25.98;10.25;;;;;;;0.95;61.92;99378.75;4922089;29;20161;-79
2022/02/01 11:00:44;;;;;;;23.30;10.23;;;;;;;0.98;61.58;99380.41;4906046;29;20043;-80
2022/02/01 11:03:12;;;;;;;20.30;8.73;;;;;;;0.87;61.61;99379.97;4921999;29;20410;-83
2022/02/01 11:05:46;;;;;;;15.40;8.95;;;;;;;0.82;61.64;99376.66;4923123;29;20039;-79
2022/02/01 11:08:13;;;;;;;19.60;10.55;;;;;;;0.92;61.65;99375.38;4930103;29;20845;-80
2022/02/01 11:10:45;;;;;;;18.48;10.57;;;;;;;0.98;61.62;99356.72;4926803;29;20047;-81
2022/02/01 11:13:11;;;;;;;37.25;11.77;;;;;;;1.06;61.25;99351.13;4942604;29;20031;-79
2022/02/01 11:15:59;;;;;;;19.00;11.07;;;;;;;1.04;61.36;99366.97;4960537;28;20042;-82
2022/02/01 11:18:27;;;;;;;22.88;11.63;;;;;;;0.96;61.55;99366.44;4901839;29;20055;-82
2022/02/01 11:21:02;;;;;;;22.92;11.70;;;;;;;0.98;61.82;99367.25;4871912;29;20063;-80
2022/02/01 11:23:44;;;;;;;25.75;11.35;;;;;;;0.94;61.99;99357.72;4902937;29;20519;-80
2022/02/01 11:26:37;;;;;;;23.15;12.65;;;;;;;0.80;62.58;99357.47;4872501;29;20138;-81
2022/02/01 11:32:32;;;;;;;21.92;11.77;;;;;;;0.90;63.05;99354.41;4901460;29;20391;-84
2022/02/01 11:35:09;;;;;;;21.20;11.55;;;;;;;0.89;63.57;99359.69;4844640;29;20085;-81
2022/02/01 11:38:01;;;;;;;21.35;12.45;;;;;;;0.96;63.40;99369.06;4881837;29;20066;-82
2022/02/01 11:40:38;;;;;;;22.30;12.18;;;;;;;0.92;63.81;99370.13;4916096;29;20047;-79
2022/02/01 11:43:17;;;;;;;23.40;11.82;;;;;;;0.84;64.20;99353.78;4902933;29;20043;-82
2022/02/01 11:45:55;;;;;;;24.45;12.40;;;;;;;0.88;64.84;99363.25;4922573;29;20058;-79
2022/02/01 11:48:27;;;;;;;23.13;11.65;;;;;;;0.86;64.60;99354.56;4870555;29;20086;-80
2022/02/01 11:50:54;;;;;;;21.23;11.77;;;;;;;0.94;64.41;99365.63;4920193;29;20499;-80
2022/02/01 11:53:24;;;;;;;22.67;11.32;;;;;;;0.89;64.64;99341.28;4905577;29;20035;-83
2022/02/01 11:55:56;;;;;;;24.25;11.23;;;;;;;0.92;63.98;99346.44;4964894;28;20050;-81
2022/02/01 11:58:33;;;;;;;24.30;12.05;;;;;;;0.89;64.52;99338.66;4953179;28;20043;-79
2022/02/01 12:01:01;;;;;;;27.38;13.20;;;;;;;0.92;64.42;99342.00;4936318;29;20047;-80
2022/02/01 12:03:36;;;;;;;21.48;12.02;;;;;;;0.86;65.43;99330.88;4920790;29;20099;-86
2022/02/01 12:06:08;;;;;;;24.83;12.85;;;;;;;0.80;65.58;99320.63;4905716;29;20098;-80
2022/02/01 12:08:38;;;;;;;24.27;12.40;;;;;;;0.92;65.15;99328.84;4904392;29;20574;-80
2022/02/01 12:11:09;;;;;;;26.73;13.43;;;;;;;0.93;65.21;99334.97;4918066;29;20043;-84
2022/02/01 12:13:36;;;;;;;27.40;13.13;;;;;;;0.69;66.33;99335.06;4929698;29;20055;-84
2022/02/01 12:16:06;;;;;;;29.45;13.63;;;;;;;0.65;66.71;99328.19;4883348;29;20075;-81
2022/02/01 12:19:02;;;;;;;25.88;14.38;;;;;;;0.57;67.56;99313.66;4930521;29;20491;-82
2022/02/01 12:21:35;;;;;;;25.02;14.05;;;;;;;0.65;67.80;99319.47;4892607;29;20112;-82
2022/02/01 12:24:03;;;;;;;28.23;15.82;;;;;;;0.77;67.77;99318.09;4877235;29;20056;-80
2022/02/01 12:26:34;;;;;;;34.60;16.92;;;;;;;0.79;67.84;99324.16;4876960;29;20052;-81
2022/02/01 12:29:03;;;;;;;35.20;16.48;;;;;;;0.81;67.69;99331.06;4893141;29;20056;-82
2022/02/01 12:31:33;;;;;;;36.17;15.98;;;;;;;0.85;67.70;99332.66;4861736;29;20060;-81
2022/02/01 12:34:01;;;;;;;38.28;16.08;;;;;;;0.85;68.08;99334.44;4842828;29;20059;-80
2022/02/01 12:36:38;;;;;;;36.15;16.83;;;;;;;0.86;67.67;99320.34;4899646;29;20056;-87
2022/02/01 12:39:12;;;;;;;33.95;17.00;;;;;;;0.93;68.19;99327.94;4899026;29;20184;-79
2022/02/01 12:46:52;;;;;;;38.20;16.63;;;;;;;0.96;68.95;99317.28;4934251;29;20074;-80
2022/02/01 12:49:20;;;;;;;33.80;16.85;;;;;;;0.96;68.89;99312.00;4903136;29;20136;-82
2022/02/01 12:51:48;;;;;;;38.00;17.88;;;;;;;0.86;69.23;99301.94;4923846;28;20065;-82
2022/02/01 12:54:25;;;;;;;34.15;17.63;;;;;;;0.95;69.09;99306.81;4923558;28;20445;-82
2022/02/01 12:56:51;;;;;;;38.17;18.20;;;;;;;0.91;69.51;99315.78;4955484;28;20062;-81
2022/02/01 12:59:18;;;;;;;34.95;18.50;;;;;;;0.92;69.74;99309.59;4926737;28;20057;-82
2022/02/01 13:01:45;;;;;;;33.17;18.23;;;;;;;0.84;70.13;99312.53;4935840;28;20038;-82
2022/02/01 13:04:20;;;;;;;39.00;19.90;;;;;;;0.87;69.86;99311.56;4931339;28;20074;-81
2022/02/01 13:06:48;;;;;;;37.75;17.42;;;;;;;0.91;70.19;99308.72;4958370;28;20049;-82
2022/02/01 13:14:41;;;;;;;38.38;20.45;;;;;;;1.07;70.08;99308.94;4956777;28;20043;-81